createdAt,value
2017-09-10T00:01:42.780Z,11.70
2017-09-10T00:04:10.356Z,11.70
2017-09-10T00:06:37.968Z,11.70
2017-09-10T00:09:05.831Z,11.70
2017-09-10T00:11:33.398Z,11.70
2017-09-10T00:14:00.970Z,11.70
2017-09-10T00:16:28.534Z,11.70
2017-09-10T00:18:56.105Z,11.70
2017-09-10T00:21:23.664Z,11.70
2017-09-10T00:23:51.995Z,11.70
2017-09-10T00:26:19.567Z,11.70
2017-09-10T00:28:47.128Z,11.70
2017-09-10T00:31:14.714Z,11.70
2017-09-10T00:36:17.128Z,11.80
2017-09-10T00:38:44.689Z,11.80
2017-09-10T00:41:12.265Z,11.80
2017-09-10T00:43:40.576Z,11.90
2017-09-10T00:46:08.426Z,11.80
2017-09-10T00:48:35.990Z,11.90
2017-09-10T00:51:03.552Z,11.90
2017-09-10T00:53:31.127Z,11.90
2017-09-10T00:55:58.689Z,11.90
2017-09-10T00:58:26.253Z,11.90
2017-09-10T01:00:53.815Z,11.90
2017-09-10T01:03:21.399Z,11.90
2017-09-10T01:05:48.986Z,11.90
2017-09-10T01:08:17.327Z,11.90
2017-09-10T01:10:44.895Z,11.90
2017-09-10T01:13:12.840Z,11.90
2017-09-10T01:15:40.421Z,11.90
2017-09-10T01:18:07.975Z,11.90
2017-09-10T01:20:35.579Z,11.90
2017-09-10T01:23:03.897Z,12.00
2017-09-10T01:25:31.491Z,11.90
2017-09-10T01:27:59.061Z,12.00
2017-09-10T01:30:27.395Z,12.00
2017-09-10T01:32:54.966Z,11.90
2017-09-10T01:35:22.551Z,12.00
2017-09-10T01:37:50.899Z,11.90
2017-09-10T01:40:18.743Z,11.90
2017-09-10T01:42:46.376Z,11.90
2017-09-10T01:45:13.933Z,11.90
2017-09-10T01:47:41.499Z,11.90
2017-09-10T01:50:09.072Z,11.90
2017-09-10T01:52:36.645Z,11.90
2017-09-10T01:55:04.198Z,11.80
2017-09-10T01:57:31.778Z,11.90
2017-09-10T01:59:59.349Z,11.80
2017-09-10T02:02:27.300Z,11.80
2017-09-10T02:04:54.872Z,11.80
2017-09-10T02:07:22.433Z,11.80
2017-09-10T02:09:50.032Z,11.70
2017-09-10T02:12:17.592Z,11.70
2017-09-10T02:14:45.167Z,11.70
2017-09-10T02:17:12.718Z,11.70
2017-09-10T02:19:40.293Z,11.70
2017-09-10T02:22:07.864Z,11.60
2017-09-10T02:24:35.728Z,11.60
2017-09-10T02:27:03.275Z,11.60
2017-09-10T02:29:30.828Z,11.60
2017-09-10T02:31:58.407Z,11.60
2017-09-10T02:34:25.971Z,11.60
2017-09-10T02:36:53.553Z,11.60
2017-09-10T02:39:21.113Z,11.60
2017-09-10T02:41:48.693Z,11.50
2017-09-10T02:44:17.021Z,11.50
2017-09-10T02:46:44.606Z,11.50
2017-09-10T02:49:12.202Z,11.50
2017-09-10T02:51:39.766Z,11.50
2017-09-10T02:54:07.336Z,11.50
2017-09-10T02:56:34.900Z,11.50
2017-09-10T02:59:02.470Z,11.50
2017-09-10T03:01:30.797Z,11.50
2017-09-10T03:03:58.373Z,11.40
2017-09-10T03:06:25.936Z,11.50
2017-09-10T03:08:53.507Z,11.40
2017-09-10T03:11:21.075Z,11.50
2017-09-10T03:13:48.926Z,11.40
2017-09-10T03:16:16.506Z,11.40
2017-09-10T03:18:44.838Z,11.40
2017-09-10T03:21:13.184Z,11.40
2017-09-10T03:23:40.765Z,11.40
2017-09-10T03:26:09.097Z,11.40
2017-09-10T03:28:37.410Z,11.40
2017-09-10T03:31:04.985Z,11.40
2017-09-10T03:33:33.316Z,11.30
2017-09-10T03:36:01.641Z,11.30
2017-09-10T03:38:29.191Z,11.40
2017-09-10T03:40:57.536Z,11.30
2017-09-10T03:43:25.306Z,11.30
2017-09-10T03:45:53.156Z,11.30
2017-09-10T03:48:20.738Z,11.30
2017-09-10T03:50:48.374Z,11.30
2017-09-10T03:53:15.940Z,11.20
2017-09-10T03:55:43.502Z,11.30
2017-09-10T03:58:11.081Z,11.20
2017-09-10T04:00:38.647Z,11.20
2017-09-10T04:03:06.977Z,11.20
2017-09-10T04:05:34.540Z,11.20
2017-09-10T04:08:02.107Z,11.20
2017-09-10T04:10:29.666Z,11.20
2017-09-10T04:12:57.233Z,11.20
2017-09-10T04:15:25.659Z,11.20
2017-09-10T04:17:53.572Z,11.20
2017-09-10T04:20:21.143Z,11.20
2017-09-10T04:22:48.715Z,11.20
2017-09-10T04:25:17.058Z,11.20
2017-09-10T04:27:44.667Z,11.20
2017-09-10T04:30:13.003Z,11.20
2017-09-10T04:32:40.565Z,11.20
2017-09-10T04:35:08.148Z,11.20
2017-09-10T04:37:35.721Z,11.20
2017-09-10T04:40:04.061Z,11.20
2017-09-10T04:42:31.637Z,11.20
2017-09-10T04:44:59.213Z,11.20
2017-09-10T04:47:27.544Z,11.20
2017-09-10T04:49:55.102Z,11.20
2017-09-10T04:52:22.670Z,11.20
2017-09-10T04:54:50.532Z,11.20
2017-09-10T04:57:18.100Z,11.20
2017-09-10T04:59:45.671Z,11.20
2017-09-10T05:02:13.242Z,11.20
2017-09-10T05:04:41.563Z,11.20
2017-09-10T05:07:09.144Z,11.20
2017-09-10T05:09:37.471Z,11.20
2017-09-10T05:12:05.048Z,11.20
2017-09-10T05:14:32.624Z,11.20
2017-09-10T05:17:00.212Z,11.20
2017-09-10T05:19:27.785Z,11.20
2017-09-10T05:21:56.427Z,11.20
2017-09-10T05:24:24.000Z,11.20
2017-09-10T05:26:51.584Z,11.20
2017-09-10T05:29:19.150Z,11.20
2017-09-10T05:31:46.725Z,11.20
2017-09-10T05:34:15.086Z,11.20
2017-09-10T05:36:42.647Z,11.20
2017-09-10T05:39:11.007Z,11.30
2017-09-10T05:41:38.581Z,11.20
2017-09-10T05:44:06.932Z,11.30
2017-09-10T05:46:34.498Z,11.30
2017-09-10T05:49:03.100Z,11.30
2017-09-10T05:51:31.452Z,11.30
2017-09-10T05:53:59.033Z,11.30
2017-09-10T05:56:26.619Z,11.30
2017-09-10T05:58:54.192Z,11.40
2017-09-10T06:01:21.759Z,11.40
2017-09-10T06:03:49.327Z,11.40
2017-09-10T06:06:17.596Z,11.40
2017-09-10T06:08:45.159Z,11.40
2017-09-10T06:11:13.026Z,11.50
2017-09-10T06:13:40.591Z,11.60
2017-09-10T06:16:08.147Z,11.60
2017-09-10T06:18:35.720Z,11.60
2017-09-10T06:21:03.289Z,11.60
2017-09-10T06:23:30.872Z,11.70
2017-09-10T06:25:59.204Z,11.70
2017-09-10T06:28:27.075Z,11.60
2017-09-10T06:30:54.628Z,11.60
2017-09-10T06:33:22.195Z,11.60
2017-09-10T06:35:49.761Z,11.60
2017-09-10T06:38:17.337Z,11.60
2017-09-10T06:40:44.909Z,11.70
2017-09-10T06:43:13.236Z,11.80
2017-09-10T06:45:40.804Z,11.70
2017-09-10T06:48:08.376Z,11.80
2017-09-10T06:50:36.319Z,11.80
2017-09-10T06:53:03.875Z,11.80
2017-09-10T06:55:31.461Z,11.80
2017-09-10T06:57:59.059Z,11.90
2017-09-10T07:00:27.404Z,12.00
2017-09-10T07:02:54.985Z,12.00
2017-09-10T07:05:23.313Z,12.00
2017-09-10T07:07:50.904Z,12.00
2017-09-10T07:10:18.478Z,12.10
2017-09-10T07:12:46.823Z,12.00
2017-09-10T07:15:15.190Z,12.00
2017-09-10T07:17:43.056Z,11.90
2017-09-10T07:20:10.620Z,11.90
2017-09-10T07:22:38.188Z,11.90
2017-09-10T07:25:05.801Z,11.90
2017-09-10T07:27:33.366Z,11.90
2017-09-10T07:30:00.953Z,11.90
2017-09-10T07:32:28.510Z,11.90
2017-09-10T07:34:56.096Z,12.00
2017-09-10T07:37:23.669Z,11.80
2017-09-10T07:39:52.415Z,11.80
2017-09-10T07:42:19.988Z,11.80
2017-09-10T07:44:47.598Z,11.90
2017-09-10T07:47:15.203Z,11.90
2017-09-10T07:49:42.766Z,12.00
2017-09-10T07:52:10.390Z,12.00
2017-09-10T07:54:37.943Z,11.90
2017-09-10T07:57:05.514Z,12.00
2017-09-10T07:59:33.099Z,12.10
2017-09-10T08:02:00.689Z,12.10
2017-09-10T08:04:29.016Z,12.10
2017-09-10T08:06:56.580Z,12.10
2017-09-10T08:09:24.178Z,12.10
2017-09-10T08:11:51.850Z,12.10
2017-09-10T08:14:19.437Z,12.20
2017-09-10T08:16:47.016Z,12.20
2017-09-10T08:19:15.380Z,12.30
2017-09-10T08:21:42.949Z,12.30
2017-09-10T08:24:11.563Z,12.30
2017-09-10T08:26:39.136Z,12.30
2017-09-10T08:29:06.776Z,12.30
2017-09-10T08:31:35.150Z,12.30
2017-09-10T08:34:03.494Z,12.40
2017-09-10T08:36:31.079Z,12.40
2017-09-10T08:38:58.697Z,12.50
2017-09-10T08:41:26.960Z,12.60
2017-09-10T08:43:54.529Z,12.60
2017-09-10T08:46:22.892Z,12.50
2017-09-10T08:48:50.462Z,12.50
2017-09-10T08:51:18.445Z,12.40
2017-09-10T08:53:46.005Z,12.50
2017-09-10T08:56:13.605Z,12.60
2017-09-10T08:58:41.218Z,12.60
2017-09-10T09:01:08.807Z,12.70
2017-09-10T09:03:37.190Z,12.80
2017-09-10T09:06:05.587Z,12.80
2017-09-10T09:08:33.170Z,12.70
2017-09-10T09:11:00.835Z,12.80
2017-09-10T09:13:28.412Z,12.90
2017-09-10T09:15:56.022Z,12.90
2017-09-10T09:18:24.386Z,13.10
2017-09-10T09:20:53.084Z,13.10
2017-09-10T09:23:20.659Z,13.10
2017-09-10T09:25:48.264Z,13.10
2017-09-10T09:28:15.863Z,13.10
2017-09-10T09:30:43.462Z,13.20
2017-09-10T09:33:11.063Z,13.10
2017-09-10T09:35:39.381Z,13.30
2017-09-10T09:38:06.975Z,13.20
2017-09-10T09:40:34.550Z,13.30
2017-09-10T09:43:02.405Z,13.40
2017-09-10T09:45:30.179Z,13.40
2017-09-10T09:47:57.775Z,13.40
2017-09-10T09:50:25.378Z,13.50
2017-09-10T09:52:52.969Z,13.50
2017-09-10T09:55:20.591Z,13.50
2017-09-10T09:57:48.223Z,13.50
2017-09-10T10:00:16.994Z,13.40
2017-09-10T10:02:45.350Z,13.40
2017-09-10T10:05:13.104Z,13.40
2017-09-10T10:07:40.710Z,13.50
2017-09-10T10:10:09.048Z,13.50
2017-09-10T10:12:36.654Z,13.50
2017-09-10T10:15:05.011Z,13.60
2017-09-10T10:17:32.657Z,13.60
2017-09-10T10:20:01.030Z,13.80
2017-09-10T10:22:29.014Z,13.80
2017-09-10T10:24:56.586Z,14.00
2017-09-10T10:27:24.183Z,14.00
2017-09-10T10:29:51.809Z,14.10
2017-09-10T10:32:19.420Z,14.30
2017-09-10T10:34:47.035Z,14.40
2017-09-10T10:37:15.392Z,14.50
2017-09-10T10:39:42.989Z,14.50
2017-09-10T10:44:44.878Z,14.90
2017-09-10T10:47:13.248Z,14.90
2017-09-10T10:49:41.658Z,14.80
2017-09-10T10:52:09.254Z,14.80
2017-09-10T10:54:37.819Z,14.50
2017-09-10T10:57:05.439Z,14.40
2017-09-10T10:59:40.182Z,14.70
2017-09-10T11:02:08.151Z,14.70
2017-09-10T11:04:36.492Z,15.20
2017-09-10T11:07:04.088Z,15.20
2017-09-10T11:09:32.486Z,15.40
2017-09-10T11:12:00.168Z,15.40
2017-09-10T11:14:27.752Z,15.70
2017-09-10T11:16:55.336Z,15.70
2017-09-10T11:19:23.731Z,15.40
2017-09-10T11:21:51.322Z,15.30
2017-09-10T11:24:18.944Z,15.70
2017-09-10T11:26:47.295Z,16.10
2017-09-10T11:29:15.294Z,16.00
2017-09-10T11:31:42.879Z,16.00
2017-09-10T11:34:10.487Z,16.20
2017-09-10T11:36:38.837Z,16.40
2017-09-10T11:39:06.414Z,16.40
2017-09-10T11:41:34.045Z,16.60
2017-09-10T11:44:01.621Z,16.70
2017-09-10T11:46:29.493Z,16.90
2017-09-10T11:48:57.071Z,16.60
2017-09-10T11:51:24.660Z,16.60
2017-09-10T11:53:52.245Z,16.40
2017-09-10T11:56:19.828Z,16.50
2017-09-10T11:58:47.606Z,16.80
2017-09-10T12:01:15.934Z,17.30
2017-09-10T12:03:43.527Z,17.30
2017-09-10T12:06:11.103Z,17.60
2017-09-10T12:08:39.768Z,17.70
2017-09-10T12:11:07.364Z,17.80
2017-09-10T12:13:35.718Z,17.70
2017-09-10T12:16:03.329Z,17.70
2017-09-10T12:18:30.902Z,17.70
2017-09-10T12:20:58.519Z,17.60
2017-09-10T12:23:26.918Z,17.40
2017-09-10T12:25:54.880Z,17.30
2017-09-10T12:28:22.484Z,16.60
2017-09-10T12:30:50.073Z,16.50
2017-09-10T12:33:17.703Z,16.40
2017-09-10T12:35:45.267Z,16.50
2017-09-10T12:38:12.862Z,16.30
2017-09-10T12:40:40.426Z,16.30
2017-09-10T12:43:08.034Z,16.40
2017-09-10T12:45:35.619Z,16.50
2017-09-10T12:48:03.267Z,16.60
2017-09-10T12:50:30.832Z,16.70
2017-09-10T12:52:58.822Z,16.70
2017-09-10T12:55:26.410Z,16.80
2017-09-10T12:57:54.023Z,16.70
2017-09-10T13:00:21.607Z,16.60
2017-09-10T13:02:49.261Z,16.70
2017-09-10T13:05:16.848Z,16.80
2017-09-10T13:07:44.435Z,16.90
2017-09-10T13:10:12.783Z,17.10
2017-09-10T13:12:40.426Z,17.00
2017-09-10T13:15:08.036Z,17.10
2017-09-10T13:17:36.406Z,17.10
2017-09-10T13:20:03.980Z,17.10
2017-09-10T13:22:31.597Z,17.00
2017-09-10T13:24:59.192Z,17.20
2017-09-10T13:27:27.540Z,17.40
2017-09-10T13:29:55.148Z,17.40
2017-09-10T13:32:23.067Z,17.40
2017-09-10T13:34:50.651Z,17.60
2017-09-10T13:37:19.026Z,17.30
2017-09-10T13:39:46.599Z,17.20
2017-09-10T13:42:14.984Z,17.10
2017-09-10T13:44:42.601Z,17.10
2017-09-10T13:47:10.172Z,17.20
2017-09-10T13:49:38.251Z,17.40
2017-09-10T13:52:06.615Z,18.20
2017-09-10T13:54:34.175Z,18.20
2017-09-10T13:57:01.793Z,18.70
2017-09-10T13:59:29.413Z,19.70
2017-09-10T14:01:57.771Z,21.30
2017-09-10T14:04:25.353Z,21.30
2017-09-10T14:06:53.997Z,20.40
2017-09-10T14:09:21.615Z,20.40
2017-09-10T14:11:49.216Z,19.70
2017-09-10T14:14:16.800Z,20.20
2017-09-10T14:16:44.394Z,20.30
2017-09-10T14:19:11.993Z,20.00
2017-09-10T14:21:39.932Z,19.60
2017-09-10T14:24:07.531Z,19.20
2017-09-10T14:26:35.113Z,19.00
2017-09-10T14:29:03.756Z,19.50
2017-09-10T14:31:31.351Z,19.50
2017-09-10T14:33:58.920Z,20.50
2017-09-10T14:36:27.272Z,23.50
2017-09-10T14:38:54.836Z,23.40
2017-09-10T14:41:22.440Z,24.80
2017-09-10T14:43:50.042Z,26.70
2017-09-10T14:46:18.713Z,31.80
2017-09-10T14:48:46.283Z,31.60
2017-09-10T14:51:14.622Z,29.90
2017-09-10T14:53:42.223Z,29.80
2017-09-10T14:56:11.588Z,30.70
2017-09-10T14:58:39.192Z,30.60
2017-09-10T15:01:07.534Z,31.20
2017-09-10T15:03:35.149Z,31.20
2017-09-10T15:06:02.722Z,29.80
2017-09-10T15:08:30.688Z,28.90
2017-09-10T15:10:58.265Z,28.10
2017-09-10T15:13:25.847Z,28.20
2017-09-10T15:15:53.455Z,27.50
2017-09-10T15:18:21.028Z,26.20
2017-09-10T15:20:48.789Z,25.00
2017-09-10T15:23:16.350Z,22.40
2017-09-10T15:25:43.922Z,21.30
2017-09-10T15:28:11.495Z,20.60
2017-09-10T15:30:39.349Z,20.00
2017-09-10T15:33:06.933Z,19.20
2017-09-10T15:35:34.498Z,18.50
2017-09-10T15:38:02.096Z,17.90
2017-09-10T15:40:29.690Z,17.40
2017-09-10T15:42:57.306Z,17.00
2017-09-10T15:45:24.892Z,16.90
2017-09-10T15:47:52.834Z,16.80
2017-09-10T15:50:20.416Z,16.90
2017-09-10T15:52:48.010Z,16.70
2017-09-10T15:55:15.597Z,16.50
2017-09-10T15:57:43.153Z,16.40
2017-09-10T16:00:10.759Z,16.30
2017-09-10T16:02:38.335Z,16.20
2017-09-10T16:05:05.936Z,16.00
2017-09-10T16:07:33.525Z,15.90
2017-09-10T16:10:02.349Z,15.70
2017-09-10T16:12:29.919Z,15.60
2017-09-10T16:14:57.537Z,15.60
2017-09-10T16:17:25.135Z,15.60
2017-09-10T16:19:52.702Z,15.60
2017-09-10T16:22:20.303Z,15.60
2017-09-10T16:24:47.897Z,15.50
2017-09-10T16:27:15.475Z,15.50
2017-09-10T16:29:43.061Z,15.50
2017-09-10T16:32:11.717Z,15.40
2017-09-10T16:34:39.308Z,15.40
2017-09-10T16:37:07.627Z,15.30
2017-09-10T16:39:35.225Z,15.30
2017-09-10T16:42:03.586Z,15.20
2017-09-10T16:44:31.177Z,15.20
2017-09-10T16:46:58.776Z,15.20
2017-09-10T16:49:26.385Z,15.20
2017-09-10T16:51:53.998Z,15.10
2017-09-10T16:54:21.562Z,15.10
2017-09-10T16:56:49.291Z,15.00
2017-09-10T16:59:16.878Z,15.00
2017-09-10T17:01:45.259Z,14.90
2017-09-10T17:04:12.826Z,14.90
2017-09-10T17:06:40.404Z,14.90
2017-09-10T17:09:07.980Z,14.80
2017-09-10T17:11:36.331Z,14.80
2017-09-10T17:14:04.198Z,14.70
2017-09-10T17:16:31.788Z,14.70
2017-09-10T17:18:59.399Z,14.70
2017-09-10T17:21:26.995Z,14.60
2017-09-10T17:23:55.471Z,14.60
2017-09-10T17:26:23.422Z,14.60
2017-09-10T17:28:51.014Z,14.60
2017-09-10T17:31:18.618Z,14.50
2017-09-10T17:33:46.256Z,14.50
2017-09-10T17:36:13.864Z,14.50
2017-09-10T17:38:41.462Z,14.40
2017-09-10T17:41:09.826Z,14.40
2017-09-10T17:43:38.486Z,14.40
2017-09-10T17:46:06.072Z,14.40
2017-09-10T17:48:33.662Z,14.30
2017-09-10T17:51:01.295Z,14.30
2017-09-10T17:53:29.644Z,14.20
2017-09-10T17:55:57.243Z,14.20
2017-09-10T17:58:24.870Z,14.20
2017-09-10T18:00:53.196Z,14.10
2017-09-10T18:03:21.117Z,14.10
2017-09-10T18:05:48.720Z,14.00
2017-09-10T18:08:16.302Z,14.00
2017-09-10T18:10:43.886Z,14.00
2017-09-10T18:13:11.450Z,13.90
2017-09-10T18:15:39.203Z,13.80
2017-09-10T18:18:06.770Z,13.70
2017-09-10T18:20:34.368Z,13.60
2017-09-10T18:23:02.030Z,13.50
2017-09-10T18:25:29.628Z,13.40
2017-09-10T18:27:57.198Z,13.30
2017-09-10T18:30:26.588Z,13.20
2017-09-10T18:32:54.164Z,13.20
2017-09-10T18:35:22.538Z,13.10
2017-09-10T18:37:50.123Z,13.00
2017-09-10T18:40:18.461Z,12.90
2017-09-10T18:42:46.069Z,12.90
2017-09-10T18:45:14.421Z,12.80
2017-09-10T18:47:42.012Z,12.80
2017-09-10T18:50:09.594Z,12.80
2017-09-10T18:52:37.297Z,12.70
2017-09-10T18:55:05.142Z,12.60
2017-09-10T18:57:33.832Z,12.50
2017-09-10T19:00:01.444Z,12.50
2017-09-10T19:02:29.792Z,12.40
2017-09-10T19:04:58.148Z,12.40
2017-09-10T19:07:25.749Z,12.40
2017-09-10T19:09:54.111Z,12.40
2017-09-10T19:12:21.697Z,12.40
2017-09-10T19:14:49.360Z,12.40
2017-09-10T19:17:16.950Z,12.30
2017-09-10T19:19:44.533Z,12.30
2017-09-10T19:22:12.104Z,12.30
2017-09-10T19:24:40.139Z,12.30
2017-09-10T19:27:07.701Z,12.30
2017-09-10T19:29:35.280Z,12.20
2017-09-10T19:32:02.876Z,12.20
2017-09-10T19:34:30.606Z,12.10
2017-09-10T19:36:58.397Z,12.10
2017-09-10T19:39:38.063Z,12.10
2017-09-10T19:42:06.411Z,12.10
2017-09-10T19:44:34.895Z,12.00
2017-09-10T19:47:03.287Z,11.90
2017-09-10T19:49:30.899Z,11.90
2017-09-10T19:51:58.870Z,11.90
2017-09-10T19:54:26.468Z,11.80
2017-09-10T19:56:54.379Z,11.80
2017-09-10T19:59:22.082Z,11.70
2017-09-10T20:01:49.745Z,11.70
2017-09-10T20:04:17.689Z,11.70
2017-09-10T20:06:45.331Z,11.60
2017-09-10T20:09:13.697Z,11.60
2017-09-10T20:11:41.292Z,11.60
2017-09-10T20:14:08.930Z,11.60
2017-09-10T20:16:36.551Z,11.50
2017-09-10T20:19:04.481Z,11.50
2017-09-10T20:21:32.099Z,11.50
2017-09-10T20:23:59.757Z,11.50
2017-09-10T20:26:27.534Z,11.50
2017-09-10T20:28:55.215Z,11.50
2017-09-10T20:31:22.915Z,11.50
2017-09-10T20:33:50.513Z,11.50
2017-09-10T20:36:18.356Z,11.50
2017-09-10T20:38:45.999Z,11.50
2017-09-10T20:41:13.943Z,11.50
2017-09-10T20:43:41.565Z,11.50
2017-09-10T20:46:09.245Z,11.40
2017-09-10T20:48:36.945Z,11.40
2017-09-10T20:51:04.570Z,11.40
2017-09-10T20:53:32.193Z,11.40
2017-09-10T20:56:00.593Z,11.50
2017-09-10T20:58:28.405Z,11.50
2017-09-10T21:00:56.068Z,11.40
2017-09-10T21:03:24.730Z,11.50
2017-09-10T21:05:53.078Z,11.50
2017-09-10T21:08:21.514Z,11.40
2017-09-10T21:10:49.146Z,11.40
2017-09-10T21:13:17.528Z,11.40
2017-09-10T21:15:45.134Z,11.40
2017-09-10T21:18:12.788Z,11.40
2017-09-10T21:20:40.573Z,11.40
2017-09-10T21:23:08.165Z,11.30
2017-09-10T21:25:35.998Z,11.30
2017-09-10T21:28:03.702Z,11.30
2017-09-10T21:30:31.331Z,11.20
2017-09-10T21:32:59.019Z,11.20
2017-09-10T21:35:26.583Z,11.20
2017-09-10T21:37:54.226Z,11.10
2017-09-10T21:40:22.047Z,11.10
2017-09-10T21:42:50.447Z,11.00
2017-09-10T21:45:18.019Z,11.00
2017-09-10T21:47:46.104Z,11.00
2017-09-10T21:50:13.720Z,11.00
2017-09-10T21:52:41.298Z,11.00
2017-09-10T21:55:08.930Z,10.90
2017-09-10T21:57:36.533Z,10.90
2017-09-10T22:00:04.161Z,10.80
2017-09-10T22:02:31.731Z,10.80
2017-09-10T22:04:59.898Z,10.80
2017-09-10T22:07:27.483Z,10.80
2017-09-10T22:09:55.044Z,10.80
2017-09-10T22:12:22.618Z,10.70
2017-09-10T22:14:50.256Z,10.70
2017-09-10T22:17:17.837Z,10.60
2017-09-10T22:19:45.408Z,10.60
2017-09-10T22:22:12.993Z,10.60
2017-09-10T22:24:41.342Z,10.50
2017-09-10T22:27:08.898Z,10.50
2017-09-10T22:29:36.470Z,10.50
2017-09-10T22:32:04.049Z,10.50
2017-09-10T22:34:32.397Z,10.50
2017-09-10T22:37:00.239Z,10.50
2017-09-10T22:39:27.822Z,10.50
2017-09-10T22:41:55.384Z,10.40
2017-09-10T22:44:22.960Z,10.40
2017-09-10T22:46:51.303Z,10.40
2017-09-10T22:49:19.631Z,10.40
2017-09-10T22:51:47.231Z,10.40
2017-09-10T22:54:14.809Z,10.40
2017-09-10T22:56:42.375Z,10.40
2017-09-10T22:59:09.942Z,10.40
2017-09-10T23:01:37.903Z,10.30
2017-09-10T23:04:05.470Z,10.30
2017-09-10T23:06:33.033Z,10.30
2017-09-10T23:09:01.371Z,10.20
2017-09-10T23:11:28.941Z,10.20
2017-09-10T23:13:56.519Z,10.20
2017-09-10T23:16:24.083Z,10.20
2017-09-10T23:18:52.424Z,10.20
2017-09-10T23:21:19.995Z,10.20
2017-09-10T23:23:47.581Z,10.10
2017-09-10T23:26:15.909Z,10.10
2017-09-10T23:28:43.787Z,10.10
2017-09-10T23:31:11.353Z,10.10
2017-09-10T23:33:38.928Z,10.00
2017-09-10T23:36:06.511Z,10.00
2017-09-10T23:38:34.838Z,10.00
2017-09-10T23:41:02.419Z,10.00
2017-09-10T23:43:29.994Z,10.00
2017-09-10T23:45:58.341Z,9.90
2017-09-10T23:48:25.907Z,9.90
2017-09-10T23:50:53.457Z,9.80
2017-09-10T23:53:21.030Z,9.80
2017-09-10T23:55:48.593Z,9.80
2017-09-10T23:58:16.156Z,9.80
